sensor_id;sensor_type;location;lat;lon;timestamp;temperature;humidity
22145;DHT22;11238;48.730;11.566;2022-12-18T00:01:18;-6.00;99.90
22145;DHT22;11238;48.730;11.566;2022-12-18T00:03:45;-5.90;99.90
22145;DHT22;11238;48.730;11.566;2022-12-18T00:06:13;-5.90;99.90
22145;DHT22;11238;48.730;11.566;2022-12-18T00:08:40;-5.80;99.90
22145;DHT22;11238;48.730;11.566;2022-12-18T00:11:10;-5.80;99.90
22145;DHT22;11238;48.730;11.566;2022-12-18T00:13:36;-5.70;99.90
22145;DHT22;11238;48.730;11.566;2022-12-18T00:16:07;-5.70;99.90
22145;DHT22;11238;48.730;11.566;2022-12-18T00:18:33;-5.70;99.90
22145;DHT22;11238;48.730;11.566;2022-12-18T00:21:01;-5.70;99.90
22145;DHT22;11238;48.730;11.566;2022-12-18T00:23:28;-5.70;99.90
22145;DHT22;11238;48.730;11.566;2022-12-18T00:25:58;-5.60;99.90
22145;DHT22;11238;48.730;11.566;2022-12-18T00:28:24;-5.60;99.90
22145;DHT22;11238;48.730;11.566;2022-12-18T00:30:50;-5.50;99.90
22145;DHT22;11238;48.730;11.566;2022-12-18T00:33:17;-5.50;99.90
22145;DHT22;11238;48.730;11.566;2022-12-18T00:35:44;-5.50;99.90
22145;DHT22;11238;48.730;11.566;2022-12-18T00:38:09;-5.50;99.90
22145;DHT22;11238;48.730;11.566;2022-12-18T00:40:35;-5.40;99.90
22145;DHT22;11238;48.730;11.566;2022-12-18T00:43:01;-5.40;99.90
22145;DHT22;11238;48.730;11.566;2022-12-18T00:45:30;-5.40;99.90
22145;DHT22;11238;48.730;11.566;2022-12-18T00:47:56;-5.40;99.90
22145;DHT22;11238;48.730;11.566;2022-12-18T00:50:24;-5.40;99.90
22145;DHT22;11238;48.730;11.566;2022-12-18T00:52:50;-5.40;99.90
22145;DHT22;11238;48.730;11.566;2022-12-18T00:55:17;-5.40;99.90
22145;DHT22;11238;48.730;11.566;2022-12-18T00:57:43;-5.30;99.90
22145;DHT22;11238;48.730;11.566;2022-12-18T01:00:12;-5.40;99.90
22145;DHT22;11238;48.730;11.566;2022-12-18T01:02:38;-5.30;99.90
22145;DHT22;11238;48.730;11.566;2022-12-18T01:05:06;-5.30;99.90
22145;DHT22;11238;48.730;11.566;2022-12-18T01:07:32;-5.30;99.90
22145;DHT22;11238;48.730;11.566;2022-12-18T01:09:58;-5.30;99.90
22145;DHT22;11238;48.730;11.566;2022-12-18T01:12:25;-5.20;99.90
22145;DHT22;11238;48.730;11.566;2022-12-18T01:14:51;-5.20;99.90
22145;DHT22;11238;48.730;11.566;2022-12-18T01:17:17;-5.10;99.90
22145;DHT22;11238;48.730;11.566;2022-12-18T01:19:43;-5.20;99.90
22145;DHT22;11238;48.730;11.566;2022-12-18T01:22:09;-5.10;99.90
22145;DHT22;11238;48.730;11.566;2022-12-18T01:24:35;-5.10;99.90
22145;DHT22;11238;48.730;11.566;2022-12-18T01:27:01;-5.10;99.90
22145;DHT22;11238;48.730;11.566;2022-12-18T01:29:27;-5.10;99.90
22145;DHT22;11238;48.730;11.566;2022-12-18T01:31:55;-5.10;99.90
22145;DHT22;11238;48.730;11.566;2022-12-18T01:34:22;-5.00;99.90
22145;DHT22;11238;48.730;11.566;2022-12-18T01:36:48;-5.00;99.90
22145;DHT22;11238;48.730;11.566;2022-12-18T01:39:14;-5.00;99.90
22145;DHT22;11238;48.730;11.566;2022-12-18T01:41:41;-5.00;99.90
22145;DHT22;11238;48.730;11.566;2022-12-18T01:47:23;-4.90;99.90
22145;DHT22;11238;48.730;11.566;2022-12-18T01:49:50;-5.00;99.90
22145;DHT22;11238;48.730;11.566;2022-12-18T01:52:16;-4.90;99.90
22145;DHT22;11238;48.730;11.566;2022-12-18T01:54:43;-4.90;99.90
22145;DHT22;11238;48.730;11.566;2022-12-18T01:57:09;-4.90;99.90
22145;DHT22;11238;48.730;11.566;2022-12-18T01:59:36;-4.90;99.90
22145;DHT22;11238;48.730;11.566;2022-12-18T02:02:03;-4.80;99.90
22145;DHT22;11238;48.730;11.566;2022-12-18T02:04:29;-4.80;99.90
22145;DHT22;11238;48.730;11.566;2022-12-18T02:07:10;-4.80;99.90
22145;DHT22;11238;48.730;11.566;2022-12-18T02:09:50;-4.80;99.90
22145;DHT22;11238;48.730;11.566;2022-12-18T02:12:39;-4.80;99.90
22145;DHT22;11238;48.730;11.566;2022-12-18T02:15:32;-4.80;99.90
22145;DHT22;11238;48.730;11.566;2022-12-18T02:18:10;-4.70;99.90
22145;DHT22;11238;48.730;11.566;2022-12-18T02:20:47;-4.70;99.90
22145;DHT22;11238;48.730;11.566;2022-12-18T02:26:14;-4.70;99.90
22145;DHT22;11238;48.730;11.566;2022-12-18T02:28:51;-4.70;99.90
22145;DHT22;11238;48.730;11.566;2022-12-18T02:31:24;-4.70;99.90
22145;DHT22;11238;48.730;11.566;2022-12-18T02:33:53;-4.70;99.90
22145;DHT22;11238;48.730;11.566;2022-12-18T02:36:21;-4.70;99.90
22145;DHT22;11238;48.730;11.566;2022-12-18T02:38:50;-4.80;99.90
22145;DHT22;11238;48.730;11.566;2022-12-18T02:41:17;-4.80;99.90
22145;DHT22;11238;48.730;11.566;2022-12-18T02:43:52;-4.80;99.90
22145;DHT22;11238;48.730;11.566;2022-12-18T02:46:29;-4.90;99.90
22145;DHT22;11238;48.730;11.566;2022-12-18T02:49:05;-4.80;99.90
22145;DHT22;11238;48.730;11.566;2022-12-18T02:54:42;-4.80;99.90
22145;DHT22;11238;48.730;11.566;2022-12-18T02:57:52;-4.80;99.90
22145;DHT22;11238;48.730;11.566;2022-12-18T03:00:14;-4.80;99.90
22145;DHT22;11238;48.730;11.566;2022-12-18T03:02:53;-4.70;99.90
22145;DHT22;11238;48.730;11.566;2022-12-18T03:05:33;-4.70;99.90
22145;DHT22;11238;48.730;11.566;2022-12-18T03:08:12;-4.70;99.90
22145;DHT22;11238;48.730;11.566;2022-12-18T03:10:47;-4.70;99.90
22145;DHT22;11238;48.730;11.566;2022-12-18T03:13:20;-4.70;99.90
22145;DHT22;11238;48.730;11.566;2022-12-18T03:15:49;-4.70;99.90
22145;DHT22;11238;48.730;11.566;2022-12-18T03:18:25;-4.60;99.90
22145;DHT22;11238;48.730;11.566;2022-12-18T03:20:55;-4.60;99.90
22145;DHT22;11238;48.730;11.566;2022-12-18T03:23:27;-4.60;99.90
22145;DHT22;11238;48.730;11.566;2022-12-18T03:25:58;-4.70;99.90
22145;DHT22;11238;48.730;11.566;2022-12-18T03:28:27;-4.60;99.90
22145;DHT22;11238;48.730;11.566;2022-12-18T03:31:00;-4.60;99.90
22145;DHT22;11238;48.730;11.566;2022-12-18T03:33:39;-4.60;99.90
22145;DHT22;11238;48.730;11.566;2022-12-18T03:36:07;-4.50;99.90
22145;DHT22;11238;48.730;11.566;2022-12-18T03:38:33;-4.50;99.90
22145;DHT22;11238;48.730;11.566;2022-12-18T03:44:20;-4.50;99.90
22145;DHT22;11238;48.730;11.566;2022-12-18T03:47:28;-4.50;99.90
22145;DHT22;11238;48.730;11.566;2022-12-18T03:50:19;-4.50;99.90
22145;DHT22;11238;48.730;11.566;2022-12-18T03:55:48;-4.50;99.90
22145;DHT22;11238;48.730;11.566;2022-12-18T03:58:19;-4.40;99.90
22145;DHT22;11238;48.730;11.566;2022-12-18T04:01:12;-4.40;99.90
22145;DHT22;11238;48.730;11.566;2022-12-18T04:03:39;-4.40;99.90
22145;DHT22;11238;48.730;11.566;2022-12-18T04:06:07;-4.40;99.90
22145;DHT22;11238;48.730;11.566;2022-12-18T04:08:34;-4.40;99.90
22145;DHT22;11238;48.730;11.566;2022-12-18T04:11:04;-4.30;99.90
22145;DHT22;11238;48.730;11.566;2022-12-18T04:13:37;-4.30;99.90
22145;DHT22;11238;48.730;11.566;2022-12-18T04:16:06;-4.30;99.90
22145;DHT22;11238;48.730;11.566;2022-12-18T04:18:33;-4.30;99.90
22145;DHT22;11238;48.730;11.566;2022-12-18T04:21:00;-4.40;99.90
22145;DHT22;11238;48.730;11.566;2022-12-18T04:23:27;-4.30;99.90
22145;DHT22;11238;48.730;11.566;2022-12-18T04:25:56;-4.30;99.90
22145;DHT22;11238;48.730;11.566;2022-12-18T04:28:36;-4.30;99.90
22145;DHT22;11238;48.730;11.566;2022-12-18T04:31:02;-4.30;99.90
22145;DHT22;11238;48.730;11.566;2022-12-18T04:33:28;-4.20;99.90
22145;DHT22;11238;48.730;11.566;2022-12-18T04:35:55;-4.20;99.90
22145;DHT22;11238;48.730;11.566;2022-12-18T04:38:21;-4.20;99.90
22145;DHT22;11238;48.730;11.566;2022-12-18T04:40:53;-4.20;99.90
22145;DHT22;11238;48.730;11.566;2022-12-18T04:43:24;-4.20;99.90
22145;DHT22;11238;48.730;11.566;2022-12-18T04:45:51;-4.20;99.90
22145;DHT22;11238;48.730;11.566;2022-12-18T04:48:16;-4.20;99.90
22145;DHT22;11238;48.730;11.566;2022-12-18T04:50:42;-4.10;99.90
22145;DHT22;11238;48.730;11.566;2022-12-18T04:53:08;-4.10;99.90
22145;DHT22;11238;48.730;11.566;2022-12-18T04:55:34;-4.10;99.90
22145;DHT22;11238;48.730;11.566;2022-12-18T04:58:00;-4.10;99.90
22145;DHT22;11238;48.730;11.566;2022-12-18T05:00:26;-4.10;99.90
22145;DHT22;11238;48.730;11.566;2022-12-18T05:02:51;-4.20;99.90
22145;DHT22;11238;48.730;11.566;2022-12-18T05:05:18;-4.20;99.90
22145;DHT22;11238;48.730;11.566;2022-12-18T05:07:43;-4.20;99.90
22145;DHT22;11238;48.730;11.566;2022-12-18T05:10:09;-4.20;99.90
22145;DHT22;11238;48.730;11.566;2022-12-18T05:12:35;-4.20;99.90
22145;DHT22;11238;48.730;11.566;2022-12-18T05:15:21;-4.20;99.90
22145;DHT22;11238;48.730;11.566;2022-12-18T05:17:47;-4.20;99.90
22145;DHT22;11238;48.730;11.566;2022-12-18T05:20:13;-4.10;99.90
22145;DHT22;11238;48.730;11.566;2022-12-18T05:22:39;-4.10;99.90
22145;DHT22;11238;48.730;11.566;2022-12-18T05:25:05;-4.10;99.90
22145;DHT22;11238;48.730;11.566;2022-12-18T05:27:31;-4.10;99.90
22145;DHT22;11238;48.730;11.566;2022-12-18T05:29:56;-4.10;99.90
22145;DHT22;11238;48.730;11.566;2022-12-18T05:32:23;-4.10;99.90
22145;DHT22;11238;48.730;11.566;2022-12-18T05:34:48;-4.10;99.90
22145;DHT22;11238;48.730;11.566;2022-12-18T05:37:14;-4.00;99.90
22145;DHT22;11238;48.730;11.566;2022-12-18T05:39:40;-4.00;99.90
22145;DHT22;11238;48.730;11.566;2022-12-18T05:42:06;-4.00;99.90
22145;DHT22;11238;48.730;11.566;2022-12-18T05:44:32;-4.10;99.90
22145;DHT22;11238;48.730;11.566;2022-12-18T05:46:58;-4.10;99.90
22145;DHT22;11238;48.730;11.566;2022-12-18T05:49:24;-4.10;99.90
22145;DHT22;11238;48.730;11.566;2022-12-18T05:51:50;-4.00;99.90
22145;DHT22;11238;48.730;11.566;2022-12-18T05:54:15;-4.00;99.90
22145;DHT22;11238;48.730;11.566;2022-12-18T05:56:41;-4.10;99.90
22145;DHT22;11238;48.730;11.566;2022-12-18T05:59:07;-4.10;99.90
22145;DHT22;11238;48.730;11.566;2022-12-18T06:01:33;-4.10;99.90
22145;DHT22;11238;48.730;11.566;2022-12-18T06:03:59;-4.10;99.90
22145;DHT22;11238;48.730;11.566;2022-12-18T06:06:27;-4.20;99.90
22145;DHT22;11238;48.730;11.566;2022-12-18T06:08:54;-4.20;99.90
22145;DHT22;11238;48.730;11.566;2022-12-18T06:11:22;-4.20;99.90
22145;DHT22;11238;48.730;11.566;2022-12-18T06:13:53;-4.20;99.90
22145;DHT22;11238;48.730;11.566;2022-12-18T06:16:19;-4.10;99.90
22145;DHT22;11238;48.730;11.566;2022-12-18T06:18:44;-4.10;99.90
22145;DHT22;11238;48.730;11.566;2022-12-18T06:21:10;-4.10;99.90
22145;DHT22;11238;48.730;11.566;2022-12-18T06:23:36;-4.10;99.90
22145;DHT22;11238;48.730;11.566;2022-12-18T06:26:07;-4.10;99.90
22145;DHT22;11238;48.730;11.566;2022-12-18T06:28:33;-4.00;99.90
22145;DHT22;11238;48.730;11.566;2022-12-18T06:30:59;-3.90;99.90
22145;DHT22;11238;48.730;11.566;2022-12-18T06:33:28;-3.80;99.90
22145;DHT22;11238;48.730;11.566;2022-12-18T06:35:54;-3.70;99.90
22145;DHT22;11238;48.730;11.566;2022-12-18T06:38:25;-3.70;99.90
22145;DHT22;11238;48.730;11.566;2022-12-18T06:40:50;-3.60;99.90
22145;DHT22;11238;48.730;11.566;2022-12-18T06:43:16;-3.60;99.90
22145;DHT22;11238;48.730;11.566;2022-12-18T06:45:41;-3.70;99.90
22145;DHT22;11238;48.730;11.566;2022-12-18T06:48:08;-3.70;99.90
22145;DHT22;11238;48.730;11.566;2022-12-18T06:50:33;-3.50;99.90
22145;DHT22;11238;48.730;11.566;2022-12-18T06:52:59;-3.40;99.90
22145;DHT22;11238;48.730;11.566;2022-12-18T06:55:25;-3.40;99.90
22145;DHT22;11238;48.730;11.566;2022-12-18T06:57:51;-3.50;99.90
22145;DHT22;11238;48.730;11.566;2022-12-18T07:00:17;-3.40;99.90
22145;DHT22;11238;48.730;11.566;2022-12-18T07:02:43;-3.50;99.90
22145;DHT22;11238;48.730;11.566;2022-12-18T07:05:09;-3.60;99.90
22145;DHT22;11238;48.730;11.566;2022-12-18T07:07:35;-3.60;99.90
22145;DHT22;11238;48.730;11.566;2022-12-18T07:10:01;-3.70;99.90
22145;DHT22;11238;48.730;11.566;2022-12-18T07:12:27;-3.60;99.90
22145;DHT22;11238;48.730;11.566;2022-12-18T07:14:53;-3.60;99.90
22145;DHT22;11238;48.730;11.566;2022-12-18T07:17:18;-3.60;99.90
22145;DHT22;11238;48.730;11.566;2022-12-18T07:19:44;-3.70;99.90
22145;DHT22;11238;48.730;11.566;2022-12-18T07:22:10;-3.70;99.90
22145;DHT22;11238;48.730;11.566;2022-12-18T07:24:36;-3.60;99.90
22145;DHT22;11238;48.730;11.566;2022-12-18T07:27:02;-3.60;99.90
22145;DHT22;11238;48.730;11.566;2022-12-18T07:29:28;-3.60;99.90
22145;DHT22;11238;48.730;11.566;2022-12-18T07:31:53;-3.50;99.90
22145;DHT22;11238;48.730;11.566;2022-12-18T07:34:19;-3.50;99.90
22145;DHT22;11238;48.730;11.566;2022-12-18T07:36:45;-3.60;99.90
22145;DHT22;11238;48.730;11.566;2022-12-18T07:39:11;-3.60;99.90
22145;DHT22;11238;48.730;11.566;2022-12-18T07:41:37;-3.60;99.90
22145;DHT22;11238;48.730;11.566;2022-12-18T07:44:12;-3.50;99.90
22145;DHT22;11238;48.730;11.566;2022-12-18T07:46:38;-3.50;99.90
22145;DHT22;11238;48.730;11.566;2022-12-18T07:49:04;-3.50;99.90
22145;DHT22;11238;48.730;11.566;2022-12-18T07:51:30;-3.50;99.90
22145;DHT22;11238;48.730;11.566;2022-12-18T07:53:56;-3.50;99.90
22145;DHT22;11238;48.730;11.566;2022-12-18T07:56:22;-3.50;99.90
22145;DHT22;11238;48.730;11.566;2022-12-18T07:58:48;-3.50;99.90
22145;DHT22;11238;48.730;11.566;2022-12-18T08:01:14;-3.40;99.90
22145;DHT22;11238;48.730;11.566;2022-12-18T08:03:40;-3.50;99.90
22145;DHT22;11238;48.730;11.566;2022-12-18T08:06:09;-3.50;99.90
22145;DHT22;11238;48.730;11.566;2022-12-18T08:08:35;-3.40;99.90
22145;DHT22;11238;48.730;11.566;2022-12-18T08:11:05;-3.40;99.90
22145;DHT22;11238;48.730;11.566;2022-12-18T08:13:31;-3.50;99.90
22145;DHT22;11238;48.730;11.566;2022-12-18T08:16:02;-3.40;99.90
22145;DHT22;11238;48.730;11.566;2022-12-18T08:18:28;-3.50;99.90
22145;DHT22;11238;48.730;11.566;2022-12-18T08:20:55;-3.50;99.90
22145;DHT22;11238;48.730;11.566;2022-12-18T08:23:23;-3.40;99.90
22145;DHT22;11238;48.730;11.566;2022-12-18T08:25:50;-3.40;99.90
22145;DHT22;11238;48.730;11.566;2022-12-18T08:35:53;-3.40;99.90
22145;DHT22;11238;48.730;11.566;2022-12-18T08:38:20;-3.40;99.90
22145;DHT22;11238;48.730;11.566;2022-12-18T08:40:46;-3.40;99.90
22145;DHT22;11238;48.730;11.566;2022-12-18T08:43:11;-3.40;99.90
22145;DHT22;11238;48.730;11.566;2022-12-18T08:46:00;-3.30;99.90
22145;DHT22;11238;48.730;11.566;2022-12-18T08:48:25;-3.40;99.90
22145;DHT22;11238;48.730;11.566;2022-12-18T08:50:55;-3.40;99.90
22145;DHT22;11238;48.730;11.566;2022-12-18T08:53:22;-3.30;99.90
22145;DHT22;11238;48.730;11.566;2022-12-18T08:55:47;-3.40;99.90
22145;DHT22;11238;48.730;11.566;2022-12-18T08:58:14;-3.40;99.90
22145;DHT22;11238;48.730;11.566;2022-12-18T09:00:39;-3.40;99.90
22145;DHT22;11238;48.730;11.566;2022-12-18T09:03:05;-3.40;99.90
22145;DHT22;11238;48.730;11.566;2022-12-18T09:05:36;-3.30;99.90
22145;DHT22;11238;48.730;11.566;2022-12-18T09:08:01;-3.30;99.90
22145;DHT22;11238;48.730;11.566;2022-12-18T09:10:27;-3.30;99.90
22145;DHT22;11238;48.730;11.566;2022-12-18T09:12:53;-3.20;99.90
22145;DHT22;11238;48.730;11.566;2022-12-18T09:15:42;-3.20;99.90
22145;DHT22;11238;48.730;11.566;2022-12-18T09:18:09;-3.20;99.90
22145;DHT22;11238;48.730;11.566;2022-12-18T09:20:36;-3.20;99.90
22145;DHT22;11238;48.730;11.566;2022-12-18T09:23:02;-3.20;99.90
22145;DHT22;11238;48.730;11.566;2022-12-18T09:25:32;-3.20;99.90
22145;DHT22;11238;48.730;11.566;2022-12-18T09:27:59;-3.10;99.90
22145;DHT22;11238;48.730;11.566;2022-12-18T09:30:26;-3.10;99.90
22145;DHT22;11238;48.730;11.566;2022-12-18T09:32:52;-3.10;99.90
22145;DHT22;11238;48.730;11.566;2022-12-18T09:35:21;-3.00;99.90
22145;DHT22;11238;48.730;11.566;2022-12-18T09:37:47;-3.00;99.90
22145;DHT22;11238;48.730;11.566;2022-12-18T09:40:18;-3.00;99.90
22145;DHT22;11238;48.730;11.566;2022-12-18T09:42:48;-2.90;99.90
22145;DHT22;11238;48.730;11.566;2022-12-18T09:45:17;-2.80;99.90
22145;DHT22;11238;48.730;11.566;2022-12-18T09:47:45;-2.80;99.90
22145;DHT22;11238;48.730;11.566;2022-12-18T09:50:29;-2.70;99.90
22145;DHT22;11238;48.730;11.566;2022-12-18T09:53:02;-2.60;99.90
22145;DHT22;11238;48.730;11.566;2022-12-18T09:55:34;-2.60;99.90
22145;DHT22;11238;48.730;11.566;2022-12-18T10:00:37;-2.70;99.90
22145;DHT22;11238;48.730;11.566;2022-12-18T10:03:10;-2.80;99.90
22145;DHT22;11238;48.730;11.566;2022-12-18T10:05:46;-2.70;99.90
22145;DHT22;11238;48.730;11.566;2022-12-18T10:08:25;-2.60;99.90
22145;DHT22;11238;48.730;11.566;2022-12-18T10:11:11;-2.70;99.90
22145;DHT22;11238;48.730;11.566;2022-12-18T10:14:00;-2.70;99.90
22145;DHT22;11238;48.730;11.566;2022-12-18T10:19:39;-2.60;99.90
22145;DHT22;11238;48.730;11.566;2022-12-18T10:24:48;-2.60;99.90
22145;DHT22;11238;48.730;11.566;2022-12-18T10:27:18;-2.50;99.90
22145;DHT22;11238;48.730;11.566;2022-12-18T10:29:46;-2.50;99.90
22145;DHT22;11238;48.730;11.566;2022-12-18T10:32:26;-2.60;99.90
22145;DHT22;11238;48.730;11.566;2022-12-18T10:34:54;-2.60;99.90
22145;DHT22;11238;48.730;11.566;2022-12-18T10:37:23;-2.60;99.90
22145;DHT22;11238;48.730;11.566;2022-12-18T10:40:10;-2.50;99.90
22145;DHT22;11238;48.730;11.566;2022-12-18T10:42:37;-2.50;99.90
22145;DHT22;11238;48.730;11.566;2022-12-18T10:45:16;-2.40;99.90
22145;DHT22;11238;48.730;11.566;2022-12-18T10:47:52;-2.30;99.90
22145;DHT22;11238;48.730;11.566;2022-12-18T10:50:32;-2.30;99.90
22145;DHT22;11238;48.730;11.566;2022-12-18T10:53:03;-2.30;99.90
22145;DHT22;11238;48.730;11.566;2022-12-18T10:55:37;-2.40;99.90
22145;DHT22;11238;48.730;11.566;2022-12-18T10:58:23;-2.30;99.90
22145;DHT22;11238;48.730;11.566;2022-12-18T11:01:11;-2.30;99.90
22145;DHT22;11238;48.730;11.566;2022-12-18T11:03:44;-2.30;99.90
22145;DHT22;11238;48.730;11.566;2022-12-18T11:06:13;-2.20;99.90
22145;DHT22;11238;48.730;11.566;2022-12-18T11:08:44;-2.10;99.90
22145;DHT22;11238;48.730;11.566;2022-12-18T11:11:20;-2.20;99.90
22145;DHT22;11238;48.730;11.566;2022-12-18T11:16:21;-2.20;99.90
22145;DHT22;11238;48.730;11.566;2022-12-18T11:18:47;-2.10;99.90
22145;DHT22;11238;48.730;11.566;2022-12-18T11:21:13;-2.00;99.90
22145;DHT22;11238;48.730;11.566;2022-12-18T11:23:53;-1.90;99.90
22145;DHT22;11238;48.730;11.566;2022-12-18T11:26:20;-1.80;99.90
22145;DHT22;11238;48.730;11.566;2022-12-18T11:28:51;-1.70;99.90
22145;DHT22;11238;48.730;11.566;2022-12-18T11:36:26;-2.00;99.90
22145;DHT22;11238;48.730;11.566;2022-12-18T11:38:55;-1.90;99.90
22145;DHT22;11238;48.730;11.566;2022-12-18T11:41:37;-2.00;99.90
22145;DHT22;11238;48.730;11.566;2022-12-18T11:44:41;-2.30;99.90
22145;DHT22;11238;48.730;11.566;2022-12-18T11:49:55;-2.40;99.90
22145;DHT22;11238;48.730;11.566;2022-12-18T11:52:32;-2.50;99.90
22145;DHT22;11238;48.730;11.566;2022-12-18T11:55:01;-2.50;99.90
22145;DHT22;11238;48.730;11.566;2022-12-18T12:00:26;-2.60;99.90
22145;DHT22;11238;48.730;11.566;2022-12-18T12:12:00;-2.00;99.90
22145;DHT22;11238;48.730;11.566;2022-12-18T12:17:03;-1.80;99.90
22145;DHT22;11238;48.730;11.566;2022-12-18T12:20:08;-1.80;99.90
22145;DHT22;11238;48.730;11.566;2022-12-18T12:22:58;-1.70;99.90
22145;DHT22;11238;48.730;11.566;2022-12-18T12:25:32;-2.00;99.90
22145;DHT22;11238;48.730;11.566;2022-12-18T12:39:27;-1.70;99.90
22145;DHT22;11238;48.730;11.566;2022-12-18T12:41:55;-1.90;99.90
22145;DHT22;11238;48.730;11.566;2022-12-18T12:44:53;-2.00;99.90
22145;DHT22;11238;48.730;11.566;2022-12-18T12:47:24;-2.20;99.90
22145;DHT22;11238;48.730;11.566;2022-12-18T12:49:52;-2.30;99.90
22145;DHT22;11238;48.730;11.566;2022-12-18T12:52:33;-2.20;99.90
22145;DHT22;11238;48.730;11.566;2022-12-18T12:55:02;-2.20;99.90
22145;DHT22;11238;48.730;11.566;2022-12-18T12:57:45;-2.20;99.90
22145;DHT22;11238;48.730;11.566;2022-12-18T13:00:18;-2.20;99.90
22145;DHT22;11238;48.730;11.566;2022-12-18T13:05:54;-2.10;99.90
22145;DHT22;11238;48.730;11.566;2022-12-18T13:08:28;-2.00;99.90
22145;DHT22;11238;48.730;11.566;2022-12-18T13:10:57;-1.90;99.90
22145;DHT22;11238;48.730;11.566;2022-12-18T13:13:51;-1.80;99.90
22145;DHT22;11238;48.730;11.566;2022-12-18T13:16:24;-1.80;99.90
22145;DHT22;11238;48.730;11.566;2022-12-18T13:18:52;-1.80;99.90
22145;DHT22;11238;48.730;11.566;2022-12-18T13:21:31;-1.90;99.90
22145;DHT22;11238;48.730;11.566;2022-12-18T13:24:16;-1.80;99.90
22145;DHT22;11238;48.730;11.566;2022-12-18T13:26:46;-1.80;99.90
22145;DHT22;11238;48.730;11.566;2022-12-18T13:29:42;-1.80;99.90
22145;DHT22;11238;48.730;11.566;2022-12-18T13:32:23;-1.80;99.90
22145;DHT22;11238;48.730;11.566;2022-12-18T13:37:54;-1.90;99.90
22145;DHT22;11238;48.730;11.566;2022-12-18T13:45:59;-1.90;99.90
22145;DHT22;11238;48.730;11.566;2022-12-18T13:48:26;-1.90;99.90
22145;DHT22;11238;48.730;11.566;2022-12-18T13:50:57;-1.90;99.90
22145;DHT22;11238;48.730;11.566;2022-12-18T13:53:31;-2.00;99.90
22145;DHT22;11238;48.730;11.566;2022-12-18T13:55:58;-1.90;99.90
22145;DHT22;11238;48.730;11.566;2022-12-18T13:58:24;-2.00;99.90
22145;DHT22;11238;48.730;11.566;2022-12-18T14:00:50;-2.00;99.90
22145;DHT22;11238;48.730;11.566;2022-12-18T14:03:28;-2.10;99.90
22145;DHT22;11238;48.730;11.566;2022-12-18T14:06:03;-2.10;99.90
22145;DHT22;11238;48.730;11.566;2022-12-18T14:08:39;-2.10;99.90
22145;DHT22;11238;48.730;11.566;2022-12-18T14:11:06;-2.10;99.90
22145;DHT22;11238;48.730;11.566;2022-12-18T14:13:39;-2.00;99.90
22145;DHT22;11238;48.730;11.566;2022-12-18T14:16:06;-2.10;99.90
22145;DHT22;11238;48.730;11.566;2022-12-18T14:18:53;-2.20;99.90
22145;DHT22;11238;48.730;11.566;2022-12-18T14:24:23;-2.20;99.90
22145;DHT22;11238;48.730;11.566;2022-12-18T14:26:49;-2.20;99.90
22145;DHT22;11238;48.730;11.566;2022-12-18T14:29:27;-2.20;99.90
22145;DHT22;11238;48.730;11.566;2022-12-18T14:32:14;-2.30;99.90
22145;DHT22;11238;48.730;11.566;2022-12-18T14:34:44;-2.20;99.90
22145;DHT22;11238;48.730;11.566;2022-12-18T14:37:11;-2.30;99.90
22145;DHT22;11238;48.730;11.566;2022-12-18T14:39:38;-2.30;99.90
22145;DHT22;11238;48.730;11.566;2022-12-18T14:42:04;-2.30;99.90
22145;DHT22;11238;48.730;11.566;2022-12-18T14:44:30;-2.40;99.90
22145;DHT22;11238;48.730;11.566;2022-12-18T14:46:56;-2.40;99.90
22145;DHT22;11238;48.730;11.566;2022-12-18T14:49:32;-2.40;99.90
22145;DHT22;11238;48.730;11.566;2022-12-18T14:52:05;-2.40;99.90
22145;DHT22;11238;48.730;11.566;2022-12-18T14:54:34;-2.40;99.90
22145;DHT22;11238;48.730;11.566;2022-12-18T14:57:22;-2.40;99.90
22145;DHT22;11238;48.730;11.566;2022-12-18T14:59:50;-2.40;99.90
22145;DHT22;11238;48.730;11.566;2022-12-18T15:02:26;-2.40;99.90
22145;DHT22;11238;48.730;11.566;2022-12-18T15:05:05;-2.30;99.90
22145;DHT22;11238;48.730;11.566;2022-12-18T15:07:51;-2.50;99.90
22145;DHT22;11238;48.730;11.566;2022-12-18T15:10:34;-2.60;99.90
22145;DHT22;11238;48.730;11.566;2022-12-18T15:18:00;-2.60;99.90
22145;DHT22;11238;48.730;11.566;2022-12-18T15:20:26;-2.50;99.90
22145;DHT22;11238;48.730;11.566;2022-12-18T15:22:52;-2.50;99.90
22145;DHT22;11238;48.730;11.566;2022-12-18T15:25:33;-2.50;99.90
22145;DHT22;11238;48.730;11.566;2022-12-18T15:28:00;-2.60;99.90
22145;DHT22;11238;48.730;11.566;2022-12-18T15:30:26;-2.70;99.90
22145;DHT22;11238;48.730;11.566;2022-12-18T15:33:16;-2.60;99.90
22145;DHT22;11238;48.730;11.566;2022-12-18T15:35:42;-2.70;99.90
22145;DHT22;11238;48.730;11.566;2022-12-18T15:38:08;-2.60;99.90
22145;DHT22;11238;48.730;11.566;2022-12-18T15:40:34;-2.60;99.90
22145;DHT22;11238;48.730;11.566;2022-12-18T15:43:00;-2.60;99.90
22145;DHT22;11238;48.730;11.566;2022-12-18T15:45:44;-2.50;99.90
22145;DHT22;11238;48.730;11.566;2022-12-18T15:48:20;-2.60;99.90
22145;DHT22;11238;48.730;11.566;2022-12-18T15:50:47;-2.50;99.90
22145;DHT22;11238;48.730;11.566;2022-12-18T15:53:13;-2.70;99.90
22145;DHT22;11238;48.730;11.566;2022-12-18T15:55:39;-2.70;99.90
22145;DHT22;11238;48.730;11.566;2022-12-18T15:58:23;-2.90;99.90
22145;DHT22;11238;48.730;11.566;2022-12-18T16:00:49;-3.00;99.90
22145;DHT22;11238;48.730;11.566;2022-12-18T16:03:15;-3.00;99.90
22145;DHT22;11238;48.730;11.566;2022-12-18T16:05:40;-3.00;99.90
22145;DHT22;11238;48.730;11.566;2022-12-18T16:08:06;-3.00;99.90
22145;DHT22;11238;48.730;11.566;2022-12-18T16:10:32;-3.00;99.90
22145;DHT22;11238;48.730;11.566;2022-12-18T16:12:58;-3.00;99.90
22145;DHT22;11238;48.730;11.566;2022-12-18T16:15:24;-2.90;99.90
22145;DHT22;11238;48.730;11.566;2022-12-18T16:17:50;-2.90;99.90
22145;DHT22;11238;48.730;11.566;2022-12-18T16:20:19;-2.80;99.90
22145;DHT22;11238;48.730;11.566;2022-12-18T16:22:47;-2.90;99.90
22145;DHT22;11238;48.730;11.566;2022-12-18T16:25:19;-3.00;99.90
22145;DHT22;11238;48.730;11.566;2022-12-18T16:27:48;-3.00;99.90
22145;DHT22;11238;48.730;11.566;2022-12-18T16:30:16;-3.00;99.90
22145;DHT22;11238;48.730;11.566;2022-12-18T16:32:42;-3.00;99.90
22145;DHT22;11238;48.730;11.566;2022-12-18T16:35:13;-3.00;99.90
22145;DHT22;11238;48.730;11.566;2022-12-18T16:37:40;-3.10;99.90
22145;DHT22;11238;48.730;11.566;2022-12-18T16:40:08;-3.00;99.90
22145;DHT22;11238;48.730;11.566;2022-12-18T16:42:36;-3.10;99.90
22145;DHT22;11238;48.730;11.566;2022-12-18T16:45:02;-3.00;99.90
22145;DHT22;11238;48.730;11.566;2022-12-18T16:47:29;-3.10;99.90
22145;DHT22;11238;48.730;11.566;2022-12-18T16:49:54;-3.10;99.90
22145;DHT22;11238;48.730;11.566;2022-12-18T16:52:20;-3.10;99.90
22145;DHT22;11238;48.730;11.566;2022-12-18T16:54:46;-3.10;99.90
22145;DHT22;11238;48.730;11.566;2022-12-18T16:57:14;-3.10;99.90
22145;DHT22;11238;48.730;11.566;2022-12-18T16:59:40;-3.20;99.90
22145;DHT22;11238;48.730;11.566;2022-12-18T17:02:21;-3.10;99.90